Time;durP1;ratioP1;P1;durP2;ratioP2;P2;SDS_P1;SDS_P2;PMS_P1;PMS_P2;Temp;Humidity;BMP_temperature;BMP_pressure;BME280_temperature;BME280_humidity;BME280_pressure;Samples;Min_cycle;Max_cycle;Signal;HPM_P1;HPM_P2
2022/05/27 00:01:05;;;;;;;;;0.50;0.00;;;;;18.43;49.60;102419.53;2466384;27;45449;-80
2022/05/27 00:02:15;;;;;;;;;1.00;1.00;;;;;18.41;49.60;102418.72;2462531;27;45249;-81
2022/05/27 00:03:26;;;;;;;;;0.00;0.00;;;;;18.41;49.72;102410.75;2461138;27;47453;-80
2022/05/27 00:04:36;;;;;;;;;1.25;1.00;;;;;18.41;50.35;102412.53;2458777;27;45286;-81
2022/05/27 00:05:51;;;;;;;;;2.50;0.25;;;;;18.41;49.91;102405.41;2452410;28;46474;-81
2022/05/27 00:07:01;;;;;;;;;1.00;1.00;;;;;18.42;50.08;102409.81;2457943;27;45430;-81
2022/05/27 00:08:11;;;;;;;;;2.00;1.00;;;;;18.41;49.80;102408.09;2458657;27;46277;-81
2022/05/27 00:09:23;;;;;;;;;0.50;0.50;;;;;18.41;49.64;102400.09;2461764;27;45236;-80
2022/05/27 00:10:34;;;;;;;;;1.00;1.00;;;;;18.40;49.59;102402.81;2461668;27;45494;-80
2022/05/27 00:11:44;;;;;;;;;0.00;0.00;;;;;18.40;49.79;102395.69;2454860;27;45387;-81
2022/05/27 00:12:54;;;;;;;;;2.00;1.00;;;;;18.39;49.58;102391.31;2451491;28;48126;-81
2022/05/27 00:14:05;;;;;;;;;0.50;0.50;;;;;18.40;49.91;102392.16;2444805;27;45372;-80
2022/05/27 00:15:15;;;;;;;;;1.00;1.00;;;;;18.39;50.03;102391.31;2451719;28;45392;-80
2022/05/27 00:16:28;;;;;;;;;1.00;1.00;;;;;18.39;49.72;102383.31;2452480;27;45245;-81
2022/05/27 00:17:38;;;;;;;;;3.50;2.00;;;;;18.39;49.79;102395.75;2452311;27;45496;-81
2022/05/27 00:18:49;;;;;;;;;0.50;0.50;;;;;18.38;50.00;102400.22;2452444;27;44636;-81
2022/05/27 00:19:59;;;;;;;;;1.25;1.25;;;;;18.38;50.15;102394.03;2452047;27;47673;-81
2022/05/27 00:21:10;;;;;;;;;1.00;0.00;;;;;18.38;49.92;102394.03;2457709;27;45192;-80
2022/05/27 00:22:21;;;;;;;;;0.50;0.00;;;;;18.35;50.10;102389.69;2452392;27;46412;-80
2022/05/27 00:23:32;;;;;;;;;0.25;0.25;;;;;18.36;49.93;102395.88;2452304;27;44554;-81
2022/05/27 00:24:42;;;;;;;;;0.00;0.00;;;;;18.34;49.91;102387.97;2452622;27;46424;-80
2022/05/27 00:25:52;;;;;;;;;1.00;0.50;;;;;18.33;50.18;102392.41;2452147;27;45236;-80
2022/05/27 00:27:05;;;;;;;;;3.00;1.00;;;;;18.32;50.19;102392.50;2454466;27;45492;-81
2022/05/27 00:28:16;;;;;;;;;1.50;0.75;;;;;18.31;50.42;102388.06;2460702;27;45998;-81
2022/05/27 00:29:27;;;;;;;;;0.00;0.00;;;;;18.30;50.03;102386.34;2456413;27;46319;-81
2022/05/27 00:30:37;;;;;;;;;3.50;1.00;;;;;18.30;50.22;102381.00;2452256;27;44671;-81
2022/05/27 00:31:47;;;;;;;;;1.00;1.00;;;;;18.29;50.38;102377.50;2452263;27;46197;-81
2022/05/27 00:32:58;;;;;;;;;1.50;1.00;;;;;18.32;50.33;102384.50;2452282;27;45451;-81
2022/05/27 00:34:09;;;;;;;;;3.25;1.00;;;;;18.32;50.47;102376.50;2451918;27;46224;-81
2022/05/27 00:35:20;;;;;;;;;1.00;1.00;;;;;18.33;50.72;102376.44;2452261;27;45180;-81
2022/05/27 00:36:30;;;;;;;;;1.00;1.00;;;;;18.35;50.48;102376.38;2453016;27;46687;-80
2022/05/27 00:37:41;;;;;;;;;1.00;1.00;;;;;18.37;50.42;102376.34;2460350;27;44593;-80
2022/05/27 00:38:51;;;;;;;;;3.00;1.25;;;;;18.38;50.65;102376.25;2452072;27;46199;-80
2022/05/27 00:40:03;;;;;;;;;0.00;0.00;;;;;18.41;50.80;102378.81;2452037;27;44526;-80
2022/05/27 00:41:13;;;;;;;;;1.50;0.25;;;;;18.43;50.51;102379.59;2455224;27;47297;-80
2022/05/27 00:42:24;;;;;;;;;1.00;1.00;;;;;18.44;50.16;102376.03;2460119;27;45498;-80
2022/05/27 00:43:35;;;;;;;;;1.00;1.00;;;;;18.47;50.51;102372.34;2457088;27;46382;-80
2022/05/27 00:44:45;;;;;;;;;1.00;0.75;;;;;18.49;50.54;102372.31;2451245;28;45364;-81
2022/05/27 00:46:02;;;;;;;;;1.00;1.00;;;;;18.52;50.43;102374.84;2451611;28;45442;-80
2022/05/27 00:47:17;;;;;;;;;1.00;1.00;;;;;18.51;50.85;102363.31;2457948;27;44589;-80
2022/05/27 00:48:28;;;;;;;;;0.50;0.00;;;;;18.54;50.21;102365.00;2461829;27;46310;-80
2022/05/27 00:49:46;;;;;;;;;0.00;0.00;;;;;18.54;50.62;102359.66;2452563;27;45373;-80
2022/05/27 00:50:57;;;;;;;;;1.50;1.25;;;;;18.57;50.65;102354.19;2451963;27;45372;-80
2022/05/27 00:52:12;;;;;;;;;0.00;0.00;;;;;18.56;50.81;102352.47;2452364;27;45468;-81
2022/05/27 00:53:29;;;;;;;;;2.75;1.00;;;;;18.55;50.55;102350.72;2451938;27;45541;-80
2022/05/27 00:54:41;;;;;;;;;1.50;1.50;;;;;18.52;50.61;102351.72;2454913;27;45437;-81
2022/05/27 00:55:57;;;;;;;;;1.00;1.00;;;;;18.50;50.20;102345.59;2450571;28;48202;-80
2022/05/27 00:57:14;;;;;;;;;1.25;1.25;;;;;18.49;50.85;102362.53;2451429;28;45376;-81
2022/05/27 00:58:38;;;;;;;;;1.75;0.75;;;;;18.47;51.06;102356.38;2451932;27;46464;-80
2022/05/27 00:59:54;;;;;;;;;1.00;1.00;;;;;18.48;50.63;102357.25;2452289;27;44698;-80
2022/05/27 01:01:05;;;;;;;;;1.00;1.00;;;;;18.44;50.85;102365.38;2458729;27;45551;-80
2022/05/27 01:02:16;;;;;;;;;2.50;1.00;;;;;18.46;50.41;102367.09;2460199;27;45388;-80
2022/05/27 01:03:29;;;;;;;;;1.00;1.00;;;;;18.46;50.99;102359.09;2455318;27;46503;-81
2022/05/27 01:04:40;;;;;;;;;3.00;1.50;;;;;18.45;51.21;102363.56;2453504;27;45378;-80
2022/05/27 01:05:50;;;;;;;;;1.50;1.00;;;;;18.46;50.81;102367.97;2453361;27;47179;-81
2022/05/27 01:07:01;;;;;;;;;2.25;1.25;;;;;18.45;51.08;102366.22;2455205;27;45412;-81
2022/05/27 01:08:15;;;;;;;;;0.50;0.50;;;;;18.41;50.80;102365.50;2451164;28;47145;-80
2022/05/27 01:09:29;;;;;;;;;3.00;0.50;;;;;18.37;50.77;102361.19;2456174;27;45329;-81
2022/05/27 01:11:32;;;;;;;;;1.00;1.00;;;;;18.34;50.88;102366.66;2453917;27;46460;-80
2022/05/27 01:13:01;;;;;;;;;2.25;1.00;;;;;18.31;51.20;102369.44;2410363;28;45291;-80
2022/05/27 01:14:27;;;;;;;;;1.25;0.25;;;;;18.29;51.35;102363.31;2461475;27;46412;-80
2022/05/27 01:16:16;;;;;;;;;2.25;1.00;;;;;18.28;51.45;102364.25;2453633;27;45266;-80
2022/05/27 01:17:46;;;;;;;;;2.00;1.00;;;;;18.27;51.20;102363.38;2457193;27;47140;-80
2022/05/27 01:21:07;;;;;;;;;0.00;0.00;;;;;18.26;51.31;102364.31;2451843;27;45164;-80
2022/05/27 01:23:06;;;;;;;;;1.00;1.00;;;;;18.22;51.24;102355.56;2460673;27;45409;-80
2022/05/27 01:24:29;;;;;;;;;3.00;1.00;;;;;18.21;51.19;102366.28;2431075;28;47255;-80
2022/05/27 01:26:01;;;;;;;;;1.75;1.75;;;;;18.20;51.52;102369.84;2444308;27;45335;-80
2022/05/27 01:27:53;;;;;;;;;3.00;1.00;;;;;18.14;51.45;102360.31;2452895;27;45453;-80
2022/05/27 01:29:12;;;;;;;;;1.50;1.50;;;;;18.15;52.05;102355.88;2448596;28;45306;-80
2022/05/27 01:30:24;;;;;;;;;1.50;1.00;;;;;18.13;51.80;102363.88;2450806;27;46776;-80
2022/05/27 01:31:39;;;;;;;;;0.00;0.00;;;;;18.10;51.73;102356.03;2451821;27;45275;-80
2022/05/27 01:33:16;;;;;;;;;1.25;1.00;;;;;18.11;52.00;102355.09;2451651;27;46308;-80
2022/05/27 01:34:35;;;;;;;;;1.00;1.00;;;;;18.12;52.03;102364.84;2450154;27;45816;-81
2022/05/27 01:36:01;;;;;;;;;2.50;1.50;;;;;18.13;52.08;102355.03;2451293;27;45524;-80
2022/05/27 01:37:23;;;;;;;;;1.00;1.00;;;;;18.11;51.96;102358.63;2451820;27;45187;-80
2022/05/27 01:38:57;;;;;;;;;1.25;1.25;;;;;18.09;52.53;102352.53;2459288;27;46481;-80
2022/05/27 01:40:30;;;;;;;;;1.00;1.00;;;;;18.09;52.29;102347.19;2451701;28;45320;-80
2022/05/27 01:42:01;;;;;;;;;1.25;1.00;;;;;18.07;52.10;102343.75;2459725;27;45477;-80
2022/05/27 01:43:26;;;;;;;;;0.75;0.75;;;;;18.07;52.36;102343.75;2451063;27;45337;-80
2022/05/27 01:45:10;;;;;;;;;0.25;0.25;;;;;18.06;52.42;102346.44;2445625;28;47047;-80
2022/05/27 01:46:35;;;;;;;;;1.00;1.00;;;;;18.07;52.69;102342.88;2457499;27;45362;-80
2022/05/27 01:48:01;;;;;;;;;1.75;1.75;;;;;18.05;52.40;102342.91;2454445;27;46514;-80
2022/05/27 01:49:28;;;;;;;;;2.00;1.75;;;;;18.04;52.15;102345.63;2455932;27;45417;-80
2022/05/27 01:50:48;;;;;;;;;2.00;1.00;;;;;18.00;52.59;102342.25;2451568;27;46187;-80
2022/05/27 01:52:02;;;;;;;;;0.50;0.50;;;;;17.98;52.59;102352.06;2450966;28;45361;-80
2022/05/27 01:53:23;;;;;;;;;2.00;1.00;;;;;17.97;52.24;102348.56;2444053;28;47295;-80
2022/05/27 01:54:45;;;;;;;;;1.00;1.00;;;;;17.97;52.41;102343.22;2457853;27;44595;-80
2022/05/27 01:56:03;;;;;;;;;2.00;0.00;;;;;17.96;52.08;102346.81;2455166;27;47094;-80
2022/05/27 01:57:27;;;;;;;;;0.00;0.00;;;;;17.96;52.01;102352.13;2453760;27;45297;-80
2022/05/27 01:58:46;;;;;;;;;3.50;1.75;;;;;17.91;52.28;102345.25;2451600;27;45395;-80
2022/05/27 02:00:10;;;;;;;;;2.00;2.00;;;;;17.90;52.07;102348.84;2451816;27;45305;-80
2022/05/27 02:01:26;;;;;;;;;1.00;1.00;;;;;17.88;52.36;102346.22;2457338;27;46926;-80
2022/05/27 02:02:49;;;;;;;;;1.00;1.00;;;;;17.84;52.06;102345.50;2461031;27;45283;-80
2022/05/27 02:04:30;;;;;;;;;1.00;1.00;;;;;17.84;52.39;102350.81;2459235;27;46357;-80
2022/05/27 02:06:05;;;;;;;;;1.50;1.00;;;;;17.82;52.30;102344.69;2452862;27;45325;-80
2022/05/27 02:07:46;;;;;;;;;1.00;1.00;;;;;17.80;52.50;102345.66;2460439;27;46756;-80
2022/05/27 02:09:04;;;;;;;;;5.00;1.25;;;;;17.75;52.31;102351.16;2452379;27;45350;-80
2022/05/27 02:10:21;;;;;;;;;2.00;1.00;;;;;17.73;52.17;102347.69;2450952;27;45676;-80
2022/05/27 02:11:32;;;;;;;;;1.75;1.00;;;;;17.72;52.42;102354.81;2451634;27;45210;-80
2022/05/27 02:13:00;;;;;;;;;4.50;1.00;;;;;17.70;52.76;102346.03;2451273;28;45561;-80
2022/05/27 02:14:27;;;;;;;;;1.25;1.25;;;;;17.70;52.17;102339.84;2451544;27;45238;-80
2022/05/27 02:15:45;;;;;;;;;1.00;1.00;;;;;17.65;52.20;102346.19;2455145;27;48227;-80
2022/05/27 02:17:05;;;;;;;;;1.00;0.75;;;;;17.62;52.33;102351.63;2455579;27;45230;-80
2022/05/27 02:18:34;;;;;;;;;1.75;1.00;;;;;17.60;52.40;102355.25;2460495;27;47226;-80
2022/05/27 02:19:50;;;;;;;;;1.00;1.00;;;;;17.60;52.24;102349.94;2455141;27;45334;-80
2022/05/27 02:21:06;;;;;;;;;1.75;1.00;;;;;17.60;52.83;102349.94;2451368;27;45498;-80
2022/05/27 02:22:23;;;;;;;;;1.25;1.25;;;;;17.58;52.59;102349.97;2451673;28;45235;-80
2022/05/27 02:23:45;;;;;;;;;4.00;1.00;;;;;17.57;52.59;102347.38;2451307;27;46679;-80
2022/05/27 02:25:01;;;;;;;;;3.00;1.00;;;;;17.56;53.13;102345.69;2458480;27;45318;-80
2022/05/27 02:26:16;;;;;;;;;1.25;1.00;;;;;17.56;52.74;102343.00;2460609;27;46728;-80
2022/05/27 02:27:34;;;;;;;;;2.00;2.00;;;;;17.56;52.61;102345.69;2451508;27;45365;-80
2022/05/27 02:28:50;;;;;;;;;1.00;1.00;;;;;17.54;52.76;102351.91;2459851;27;47442;-80
2022/05/27 02:30:06;;;;;;;;;1.75;1.75;;;;;17.54;52.75;102345.72;2453895;27;45294;-80
2022/05/27 02:31:23;;;;;;;;;1.50;1.50;;;;;17.53;52.80;102344.84;2460552;27;45458;-80
2022/05/27 02:32:41;;;;;;;;;3.00;1.00;;;;;17.56;52.52;102348.34;2461376;27;45177;-80
2022/05/27 02:35:27;;;;;;;;;2.25;1.00;;;;;17.54;53.10;102345.72;2451307;28;45323;-80
2022/05/27 02:37:03;;;;;;;;;3.00;2.00;;;;;17.53;53.02;102334.19;2451363;27;46644;-80
2022/05/27 02:38:14;;;;;;;;;3.00;2.00;;;;;17.52;53.10;102344.91;2451357;27;45235;-80
2022/05/27 02:39:25;;;;;;;;;2.00;1.00;;;;;17.51;52.96;102338.72;2451109;27;46614;-80
2022/05/27 02:40:46;;;;;;;;;2.25;2.00;;;;;17.50;52.99;102338.78;2450285;27;45328;-80
2022/05/27 02:42:02;;;;;;;;;1.00;1.00;;;;;17.49;53.04;102347.66;2448502;27;48194;-80
2022/05/27 02:43:15;;;;;;;;;2.75;2.75;;;;;17.49;52.88;102348.53;2453787;27;45279;-80
2022/05/27 02:44:28;;;;;;;;;1.00;1.00;;;;;17.48;52.73;102345.94;2454525;27;45410;-79
2022/05/27 02:45:49;;;;;;;;;1.25;1.25;;;;;17.47;53.56;102344.19;2453670;27;45239;-80
2022/05/27 02:47:13;;;;;;;;;3.00;1.00;;;;;17.48;53.09;102345.94;2454424;27;45258;-80
2022/05/27 02:48:50;;;;;;;;;2.00;1.50;;;;;17.46;53.04;102343.31;2451144;27;45227;-80
2022/05/27 02:50:23;;;;;;;;;2.50;2.00;;;;;17.44;52.94;102339.88;2451373;27;45366;-80
2022/05/27 02:51:46;;;;;;;;;3.00;2.00;;;;;17.41;53.33;102339.97;2451274;27;45310;-80
2022/05/27 02:53:13;;;;;;;;;5.75;3.00;;;;;17.42;53.45;102350.56;2455677;27;47008;-80
2022/05/27 02:54:45;;;;;;;;;3.00;3.00;;;;;17.43;53.61;102346.13;2461445;27;45462;-80
2022/05/27 02:56:09;;;;;;;;;2.25;2.00;;;;;17.46;53.42;102348.66;2455010;27;45351;-80
2022/05/27 02:57:27;;;;;;;;;2.00;2.00;;;;;17.47;53.17;102355.72;2455794;27;45471;-80
2022/05/27 02:58:38;;;;;;;;;3.00;2.00;;;;;17.48;53.41;102351.28;2459877;27;46436;-80
2022/05/27 02:59:51;;;;;;;;;3.00;1.50;;;;;17.46;53.78;102343.31;2460258;27;44842;-80
2022/05/27 03:01:02;;;;;;;;;3.00;1.25;;;;;17.49;53.02;102343.22;2458240;27;45579;-80
2022/05/27 03:02:15;;;;;;;;;2.75;2.75;;;;;17.51;53.60;102351.13;2451271;27;45231;-80
2022/05/27 03:03:26;;;;;;;;;1.50;1.50;;;;;17.51;53.43;102345.81;2450519;27;46917;-80
2022/05/27 03:04:41;;;;;;;;;1.25;1.25;;;;;17.50;53.60;102344.97;2451088;27;45241;-80
2022/05/27 03:06:05;;;;;;;;;2.00;2.00;;;;;17.50;53.20;102344.09;2450972;27;45410;-80
2022/05/27 03:07:24;;;;;;;;;2.25;1.50;;;;;17.50;53.26;102349.41;2457749;27;45330;-80
2022/05/27 03:09:05;;;;;;;;;5.50;2.25;;;;;17.46;53.44;102348.66;2454138;27;47250;-80
2022/05/27 03:10:33;;;;;;;;;3.50;2.00;;;;;17.46;53.71;102351.31;2454094;27;44759;-80
2022/05/27 03:12:07;;;;;;;;;2.75;1.50;;;;;17.45;53.40;102349.59;2450520;27;46327;-80
2022/05/27 03:13:55;;;;;;;;;2.00;2.00;;;;;17.43;53.49;102344.31;2451140;27;44680;-80
2022/05/27 03:15:14;;;;;;;;;2.75;2.50;;;;;17.41;53.88;102353.25;2458953;27;48067;-80
2022/05/27 03:16:33;;;;;;;;;1.00;1.00;;;;;17.39;53.64;102350.66;2451176;27;45380;-80
2022/05/27 03:17:50;;;;;;;;;2.00;2.00;;;;;17.38;53.88;102348.06;2450109;27;47333;-80
2022/05/27 03:19:42;;;;;;;;;2.00;2.00;;;;;17.37;53.68;102349.00;2453495;27;45327;-80
2022/05/27 03:21:22;;;;;;;;;2.00;2.00;;;;;17.35;53.74;102348.19;2440560;27;45567;-80
2022/05/27 03:22:53;;;;;;;;;4.00;2.00;;;;;17.33;53.70;102353.56;2460863;27;45209;-80
2022/05/27 03:24:16;;;;;;;;;2.00;2.00;;;;;17.34;53.97;102354.41;2453781;27;46364;-80
2022/05/27 03:25:47;;;;;;;;;2.00;2.00;;;;;17.35;53.63;102351.72;2452176;27;44773;-80
2022/05/27 03:27:33;;;;;;;;;2.25;2.00;;;;;17.34;53.70;102344.66;2450804;27;46519;-80
2022/05/27 03:29:16;;;;;;;;;1.25;1.25;;;;;17.35;53.82;102351.72;2450355;27;45508;-80
2022/05/27 03:30:33;;;;;;;;;3.00;2.75;;;;;17.35;53.55;102350.84;2450835;27;48068;-80
2022/05/27 03:32:08;;;;;;;;;3.00;2.75;;;;;17.35;53.48;102348.19;2452251;27;45389;-80
2022/05/27 03:33:28;;;;;;;;;3.00;2.00;;;;;17.33;53.84;102350.91;2454546;27;47198;-80
2022/05/27 03:34:55;;;;;;;;;0.50;0.50;;;;;17.30;53.32;102351.88;2451250;27;45369;-80
2022/05/27 03:36:30;;;;;;;;;2.25;2.00;;;;;17.30;53.43;102353.66;2450879;27;46736;-80
2022/05/27 03:37:50;;;;;;;;;3.00;3.00;;;;;17.25;53.13;102348.53;2451109;28;44622;-81
2022/05/27 03:39:19;;;;;;;;;7.00;2.00;;;;;17.22;53.56;102351.28;2450967;27;46572;-80
2022/05/27 03:40:39;;;;;;;;;3.00;3.00;;;;;17.20;53.42;102354.00;2450158;28;45322;-81
2022/05/27 03:41:55;;;;;;;;;2.75;2.00;;;;;17.20;53.19;102350.47;2450998;27;48015;-81
2022/05/27 03:43:07;;;;;;;;;3.25;2.75;;;;;17.17;53.52;102347.91;2451736;27;45294;-80
2022/05/27 03:44:20;;;;;;;;;2.00;2.00;;;;;17.14;53.33;102345.31;2450192;28;46398;-80
2022/05/27 03:45:30;;;;;;;;;3.50;2.50;;;;;17.14;53.51;102347.97;2450890;27;45240;-80
2022/05/27 03:46:40;;;;;;;;;2.75;1.75;;;;;17.14;53.72;102337.34;2454024;27;47040;-80
2022/05/27 03:47:52;;;;;;;;;3.50;1.50;;;;;17.14;53.60;102345.31;2458239;27;45228;-80
2022/05/27 03:49:04;;;;;;;;;3.75;2.00;;;;;17.14;53.81;102347.97;2458768;27;46449;-80
2022/05/27 03:50:17;;;;;;;;;2.00;2.00;;;;;17.15;53.23;102349.72;2460843;27;45314;-80
2022/05/27 03:51:32;;;;;;;;;2.00;2.00;;;;;17.13;53.28;102356.88;2459637;27;45329;-81
2022/05/27 03:52:45;;;;;;;;;2.00;2.00;;;;;17.08;53.53;102344.66;2459272;27;45287;-81
2022/05/27 03:54:05;;;;;;;;;2.75;2.25;;;;;17.04;53.78;102348.31;2459951;27;46618;-81
2022/05/27 03:55:18;;;;;;;;;3.00;2.50;;;;;17.04;53.73;102344.81;2460803;27;44688;-80
2022/05/27 03:56:32;;;;;;;;;3.25;2.50;;;;;16.99;53.66;102343.16;2460537;27;46443;-81
2022/05/27 03:57:43;;;;;;;;;3.25;2.00;;;;;16.99;53.96;102347.59;2460037;27;45251;-82
2022/05/27 03:58:53;;;;;;;;;3.00;3.00;;;;;16.99;53.89;102350.25;2450808;27;45522;-81
2022/05/27 04:00:06;;;;;;;;;3.75;3.75;;;;;16.99;53.90;102345.81;2465211;27;45263;-81
2022/05/27 04:01:22;;;;;;;;;3.00;2.00;;;;;17.00;53.93;102346.69;2451516;27;46497;-81
2022/05/27 04:02:32;;;;;;;;;2.50;2.50;;;;;17.02;54.03;102344.84;2459682;27;45239;-81
2022/05/27 04:03:43;;;;;;;;;1.00;1.00;;;;;17.05;53.60;102354.50;2453806;27;46423;-81
2022/05/27 04:04:53;;;;;;;;;3.00;3.00;;;;;17.06;53.67;102356.25;2450727;27;45240;-81
2022/05/27 04:06:03;;;;;;;;;6.25;3.50;;;;;17.05;53.69;102360.69;2449822;28;47523;-80
2022/05/27 04:07:14;;;;;;;;;3.25;2.00;;;;;17.09;53.98;102358.78;2451396;27;45659;-80
2022/05/27 04:08:25;;;;;;;;;4.00;2.00;;;;;17.10;53.89;102356.09;2451328;27;46359;-81
2022/05/27 04:09:36;;;;;;;;;3.00;3.00;;;;;17.10;53.96;102353.44;2452648;27;45345;-81
2022/05/27 04:10:46;;;;;;;;;6.00;2.00;;;;;17.14;53.98;102355.94;2452190;27;45386;-81
2022/05/27 04:11:57;;;;;;;;;4.00;4.00;;;;;17.14;53.92;102353.28;2455017;27;44822;-80
2022/05/27 04:13:07;;;;;;;;;4.75;2.50;;;;;17.11;53.71;102348.97;2460818;27;46534;-81
2022/05/27 04:14:18;;;;;;;;;2.25;2.25;;;;;17.14;54.08;102355.94;2462266;27;45435;-81
2022/05/27 04:15:29;;;;;;;;;2.75;1.50;;;;;17.15;53.85;102352.38;2452909;27;46946;-81
2022/05/27 04:16:39;;;;;;;;;3.25;3.25;;;;;17.13;54.11;102349.78;2451873;28;45270;-81
2022/05/27 04:17:50;;;;;;;;;2.25;2.25;;;;;17.12;53.95;102347.16;2452552;27;45413;-81
2022/05/27 04:19:01;;;;;;;;;2.00;1.50;;;;;17.10;53.70;102356.09;2452160;27;45250;-81
2022/05/27 04:20:15;;;;;;;;;4.50;2.00;;;;;17.10;54.25;102356.09;2451660;27;47459;-80
2022/05/27 04:21:25;;;;;;;;;6.75;2.00;;;;;17.08;54.16;102357.94;2451721;27;45344;-81
2022/05/27 04:22:36;;;;;;;;;4.00;2.75;;;;;17.08;54.11;102365.03;2452601;27;45336;-81
2022/05/27 04:23:46;;;;;;;;;2.00;2.00;;;;;17.10;54.21;102360.53;2456925;27;44683;-81
2022/05/27 04:24:58;;;;;;;;;4.00;4.00;;;;;17.09;54.02;102356.13;2459979;27;45314;-81
2022/05/27 04:26:09;;;;;;;;;2.75;2.75;;;;;17.07;54.18;102360.63;2452349;27;44741;-80
2022/05/27 04:27:20;;;;;;;;;3.25;3.25;;;;;17.02;54.16;102367.88;2452009;27;46179;-81
2022/05/27 04:28:31;;;;;;;;;4.75;3.50;;;;;16.97;54.12;102368.91;2451646;27;45270;-81
2022/05/27 04:29:45;;;;;;;;;4.25;3.00;;;;;16.95;54.36;102367.22;2452374;27;45294;-81
2022/05/27 04:30:56;;;;;;;;;3.25;3.25;;;;;16.95;54.60;102364.56;2462312;27;45183;-81
2022/05/27 04:32:06;;;;;;;;;4.00;3.25;;;;;16.92;54.58;102364.66;2458734;27;48524;-81
2022/05/27 04:33:17;;;;;;;;;5.50;3.75;;;;;16.89;54.64;102359.47;2461113;27;44698;-81
2022/05/27 04:34:28;;;;;;;;;3.75;3.00;;;;;16.87;54.92;102368.34;2451340;28;47217;-81
2022/05/27 04:35:39;;;;;;;;;3.00;3.00;;;;;16.87;54.68;102371.00;2455772;27;44657;-81
2022/05/27 04:36:49;;;;;;;;;4.00;3.25;;;;;16.87;54.76;102371.00;2451456;28;48462;-81
2022/05/27 04:37:59;;;;;;;;;6.50;3.00;;;;;16.86;54.98;102361.31;2457175;27;44769;-80
2022/05/27 04:39:10;;;;;;;;;5.00;4.00;;;;;16.86;54.72;102365.75;2458497;27;45494;-80
2022/05/27 04:40:21;;;;;;;;;4.50;3.00;;;;;16.86;54.87;102363.97;2456229;27;45494;-81
2022/05/27 04:41:31;;;;;;;;;5.00;2.75;;;;;16.89;54.93;102372.75;2465178;27;47235;-81
2022/05/27 04:42:41;;;;;;;;;3.00;3.00;;;;;16.91;54.93;102373.56;2458645;27;44656;-81
2022/05/27 04:43:52;;;;;;;;;5.00;4.00;;;;;16.93;55.20;102371.72;2460527;27;45292;-80
2022/05/27 04:45:03;;;;;;;;;6.75;4.75;;;;;16.93;54.91;102369.06;2456668;27;45245;-81
2022/05/27 04:46:14;;;;;;;;;2.00;2.00;;;;;16.93;54.74;102367.28;2452023;27;46442;-80
2022/05/27 04:47:24;;;;;;;;;5.00;5.00;;;;;16.96;54.96;102363.66;2452292;27;45338;-81
2022/05/27 04:48:34;;;;;;;;;6.00;6.00;;;;;16.97;55.20;102362.72;2459652;27;47220;-81
2022/05/27 04:49:51;;;;;;;;;6.25;5.25;;;;;16.99;54.96;102364.41;2450960;28;45370;-80
2022/05/27 04:51:01;;;;;;;;;8.00;5.75;;;;;17.00;54.85;102367.94;2446817;28;48007;-81
2022/05/27 04:52:11;;;;;;;;;6.00;5.25;;;;;17.00;54.99;102367.94;2459592;27;45233;-81
2022/05/27 04:53:22;;;;;;;;;5.75;4.25;;;;;17.00;54.97;102357.31;2457468;27;45446;-81
2022/05/27 04:54:32;;;;;;;;;7.00;5.00;;;;;16.99;54.90;102363.53;2453086;27;45240;-80
2022/05/27 04:55:43;;;;;;;;;6.00;5.50;;;;;17.01;54.86;102369.69;2461119;27;46195;-81
2022/05/27 04:56:55;;;;;;;;;8.00;5.75;;;;;17.02;54.72;102368.75;2461982;27;45202;-80
2022/05/27 04:58:07;;;;;;;;;5.00;4.75;;;;;17.04;54.73;102364.25;2460295;27;48330;-81
2022/05/27 04:59:17;;;;;;;;;3.00;3.00;;;;;17.05;54.91;102371.31;2454261;27;45427;-80
2022/05/27 05:00:35;;;;;;;;;5.00;4.00;;;;;17.05;54.71;102371.31;2451105;27;47067;-80
2022/05/27 05:01:45;;;;;;;;;12.25;7.00;;;;;17.04;54.86;102366.91;2448837;27;45340;-80
2022/05/27 05:02:56;;;;;;;;;9.75;6.00;;;;;17.04;54.80;102353.63;2453941;27;47113;-80
2022/05/27 05:04:07;;;;;;;;;5.25;4.75;;;;;17.06;54.99;102357.09;2463674;27;45408;-80
2022/05/27 05:05:19;;;;;;;;;6.00;5.75;;;;;17.07;54.78;102361.50;2457646;27;46480;-80
2022/05/27 05:06:30;;;;;;;;;7.00;5.75;;;;;17.10;55.22;102364.03;2453604;27;45218;-80
2022/05/27 05:07:42;;;;;;;;;8.25;7.00;;;;;17.10;55.07;102358.75;2460217;27;45287;-80
2022/05/27 05:08:52;;;;;;;;;4.00;4.00;;;;;17.05;54.81;102373.97;2452236;28;45163;-80
2022/05/27 05:10:03;;;;;;;;;8.50;7.25;;;;;17.02;54.99;102365.22;2451784;27;46717;-80
2022/05/27 05:11:13;;;;;;;;;8.75;8.75;;;;;17.02;55.24;102366.09;2452071;27;45216;-81
2022/05/27 05:12:24;;;;;;;;;14.25;11.25;;;;;16.99;54.83;102366.19;2451843;27;46685;-79
2022/05/27 05:13:35;;;;;;;;;9.25;6.50;;;;;17.00;54.87;102370.59;2450979;28;45500;-80
2022/05/27 05:14:45;;;;;;;;;11.75;9.25;;;;;16.96;54.72;102372.47;2451300;27;45490;-80
2022/05/27 05:15:57;;;;;;;;;6.50;5.00;;;;;16.93;55.03;102369.06;2451990;27;44754;-80
2022/05/27 05:17:08;;;;;;;;;9.25;9.00;;;;;16.93;55.47;102377.03;2451111;28;47138;-80
2022/05/27 05:18:18;;;;;;;;;10.00;7.50;;;;;16.93;55.39;102369.06;2458296;27;45561;-80
2022/05/27 05:19:29;;;;;;;;;10.00;7.25;;;;;16.93;55.48;102375.25;2457205;27;46423;-80
2022/05/27 05:20:39;;;;;;;;;10.00;6.00;;;;;16.94;55.01;102373.47;2451272;27;44684;-80
2022/05/27 05:21:49;;;;;;;;;7.25;7.25;;;;;16.93;55.54;102374.38;2459849;27;47060;-81
2022/05/27 05:23:00;;;;;;;;;10.50;10.00;;;;;16.95;55.63;102375.19;2461172;27;45246;-81
2022/05/27 05:24:11;;;;;;;;;10.50;7.50;;;;;16.93;55.35;102374.38;2453821;27;45557;-81
2022/05/27 05:25:23;;;;;;;;;10.50;7.50;;;;;16.89;55.49;102373.59;2452008;27;45283;-81
2022/05/27 05:26:33;;;;;;;;;11.50;9.25;;;;;16.88;55.92;102366.56;2451557;27;45576;-81
2022/05/27 05:27:44;;;;;;;;;7.00;7.00;;;;;16.89;55.75;102373.59;2455083;27;45206;-81
2022/05/27 05:28:54;;;;;;;;;9.50;7.75;;;;;16.91;55.87;102374.44;2463395;27;47880;-81
2022/05/27 05:30:06;;;;;;;;;5.75;4.50;;;;;16.95;55.33;102375.19;2458509;27;45214;-81
2022/05/27 05:31:17;;;;;;;;;11.50;6.75;;;;;16.94;55.78;102369.00;2458284;27;47408;-81
2022/05/27 05:32:27;;;;;;;;;8.25;8.25;;;;;16.94;55.48;102368.16;2456826;27;45353;-81
2022/05/27 05:33:37;;;;;;;;;7.00;6.75;;;;;16.93;55.74;102364.63;2456845;27;46275;-80
2022/05/27 05:34:48;;;;;;;;;8.75;7.25;;;;;16.96;55.80;102382.25;2451785;27;45603;-80
2022/05/27 05:35:59;;;;;;;;;9.00;8.25;;;;;16.96;55.77;102371.63;2450959;27;47079;-79
2022/05/27 05:37:09;;;;;;;;;13.25;11.75;;;;;16.95;55.61;102373.41;2452986;27;44707;-79
2022/05/27 05:38:20;;;;;;;;;10.50;9.50;;;;;16.95;55.96;102376.06;2452434;27;48319;-79
2022/05/27 05:39:30;;;;;;;;;9.50;7.50;;;;;16.99;55.83;102372.38;2454555;27;45455;-80
2022/05/27 05:40:41;;;;;;;;;9.00;6.50;;;;;16.99;55.81;102375.03;2452624;27;45246;-80
2022/05/27 05:42:04;;;;;;;;;8.50;6.50;;;;;17.02;56.12;102374.06;2454147;27;45515;-80
2022/05/27 05:43:14;;;;;;;;;8.25;7.00;;;;;16.99;55.67;102375.03;2456634;27;45501;-80
2022/05/27 05:44:30;;;;;;;;;8.50;7.00;;;;;16.99;55.89;102376.81;2459440;27;45352;-80
2022/05/27 05:45:40;;;;;;;;;7.75;7.25;;;;;16.99;55.71;102368.84;2445790;27;47269;-80
2022/05/27 05:46:51;;;;;;;;;9.25;7.00;;;;;16.98;56.09;102375.09;2456909;27;44744;-80
2022/05/27 05:48:01;;;;;;;;;8.75;8.75;;;;;16.99;55.89;102374.16;2451490;27;45195;-80
2022/05/27 05:49:11;;;;;;;;;10.00;9.50;;;;;17.00;55.88;102383.88;2451551;27;45265;-80
2022/05/27 05:50:22;;;;;;;;;12.50;8.00;;;;;16.99;56.21;102375.03;2453200;27;45419;-80
2022/05/27 05:51:32;;;;;;;;;13.25;8.25;;;;;17.02;55.94;102376.72;2460682;27;45244;-79
2022/05/27 05:52:44;;;;;;;;;10.00;7.75;;;;;17.04;55.89;102374.03;2455574;27;45422;-80
2022/05/27 05:53:55;;;;;;;;;11.50;8.25;;;;;17.06;55.75;102373.03;2457813;27;44836;-80
2022/05/27 05:55:06;;;;;;;;;8.75;8.75;;;;;17.09;55.91;102380.91;2456486;27;46572;-80
2022/05/27 05:56:16;;;;;;;;;13.75;9.00;;;;;17.10;55.73;102380.00;2452661;27;45693;-80
2022/05/27 05:57:27;;;;;;;;;10.50;9.50;;;;;17.10;56.10;102369.38;2453260;27;48273;-80
2022/05/27 05:58:37;;;;;;;;;9.50;9.50;;;;;17.13;55.76;102383.47;2457585;27;44787;-80
2022/05/27 05:59:48;;;;;;;;;7.25;6.00;;;;;17.10;56.06;102379.13;2450897;27;46742;-81